Time;durP1;ratioP1;P1;durP2;ratioP2;P2;SDS_P1;SDS_P2;PMS_P1;PMS_P2;Temp;Humidity;BMP_temperature;BMP_pressure;BME280_temperature;BME280_humidity;BME280_pressure;Samples;Min_cycle;Max_cycle;Signal;HPM_P1;HPM_P2
2021/03/09 00:00:36;;;;;;;9.88;3.65;;;-1.20;99.90;;;;;;5059816;28;20404;-76
2021/03/09 00:03:02;;;;;;;7.85;3.13;;;-1.30;99.90;;;;;;5059019;28;20116;-76
2021/03/09 00:05:27;;;;;;;8.85;3.67;;;-1.30;99.90;;;;;;5042359;28;20051;-76
2021/03/09 00:07:53;;;;;;;6.75;2.92;;;-1.40;99.90;;;;;;5041969;28;20687;-76
2021/03/09 00:10:19;;;;;;;8.15;3.72;;;-1.40;99.90;;;;;;5055673;28;20532;-76
2021/03/09 00:12:44;;;;;;;6.25;3.25;;;-1.40;99.90;;;;;;5058344;28;20465;-76
2021/03/09 00:15:11;;;;;;;11.30;3.63;;;-1.40;99.90;;;;;;5064524;28;20033;-76
2021/03/09 00:17:36;;;;;;;6.95;3.28;;;-1.40;99.90;;;;;;5047598;28;20043;-76
2021/03/09 00:20:04;;;;;;;6.18;2.90;;;-1.40;99.90;;;;;;5065956;28;20032;-76
2021/03/09 00:22:30;;;;;;;6.72;3.20;;;-1.50;99.90;;;;;;5065787;28;20032;-76
2021/03/09 00:24:55;;;;;;;8.63;3.65;;;-1.50;99.90;;;;;;5044837;28;20068;-76
2021/03/09 00:27:21;;;;;;;7.35;2.92;;;-1.60;99.90;;;;;;5054299;28;20033;-76
2021/03/09 00:29:47;;;;;;;8.65;3.63;;;-1.60;99.90;;;;;;5056681;28;20048;-75
2021/03/09 00:32:13;;;;;;;10.25;3.95;;;-1.60;99.90;;;;;;5049760;28;20029;-75
2021/03/09 00:34:38;;;;;;;8.05;3.17;;;-1.70;99.90;;;;;;5058145;28;20101;-75
2021/03/09 00:37:05;;;;;;;11.65;4.20;;;-1.70;99.90;;;;;;5059407;28;20113;-75
2021/03/09 00:39:31;;;;;;;6.90;3.58;;;-1.80;99.90;;;;;;5059435;28;20040;-75
2021/03/09 00:41:57;;;;;;;7.78;3.30;;;-1.80;99.90;;;;;;5058857;28;20028;-76
2021/03/09 00:44:22;;;;;;;7.30;3.30;;;-1.80;99.90;;;;;;5041005;28;20907;-75
2021/03/09 00:46:49;;;;;;;7.00;2.78;;;-1.90;99.90;;;;;;5040769;28;20063;-76
2021/03/09 00:49:15;;;;;;;5.95;3.17;;;-1.90;99.90;;;;;;5052686;28;20447;-76
2021/03/09 00:51:40;;;;;;;8.05;3.42;;;-2.00;99.90;;;;;;5040646;28;20037;-76
2021/03/09 00:54:06;;;;;;;9.10;3.72;;;-2.00;99.90;;;;;;5059038;28;20035;-76
2021/03/09 00:56:32;;;;;;;7.57;3.40;;;-2.00;99.90;;;;;;5039965;28;20082;-76
2021/03/09 00:58:58;;;;;;;8.57;3.10;;;-2.00;99.90;;;;;;5059138;28;20037;-76
2021/03/09 01:01:23;;;;;;;7.75;3.50;;;-2.00;99.90;;;;;;5059173;28;20032;-76
2021/03/09 01:03:49;;;;;;;6.85;3.20;;;-2.00;99.90;;;;;;5058935;28;20158;-76
2021/03/09 01:06:15;;;;;;;5.15;2.60;;;-2.00;99.90;;;;;;5053618;28;20174;-76
2021/03/09 01:08:41;;;;;;;10.13;3.47;;;-2.00;99.90;;;;;;5040799;28;20028;-76
2021/03/09 01:11:06;;;;;;;9.15;2.92;;;-2.00;99.90;;;;;;5023041;28;20024;-76
2021/03/09 01:13:32;;;;;;;10.98;3.10;;;-2.00;99.90;;;;;;5058466;28;20123;-76
2021/03/09 01:15:58;;;;;;;6.47;3.08;;;-2.00;99.90;;;;;;5056775;28;20033;-76
2021/03/09 01:18:23;;;;;;;7.70;3.25;;;-1.90;99.90;;;;;;5055433;28;20075;-76
2021/03/09 01:20:49;;;;;;;8.43;3.40;;;-1.90;99.90;;;;;;5048905;28;20446;-76
2021/03/09 01:23:15;;;;;;;8.90;3.10;;;-1.90;99.90;;;;;;5042341;28;20104;-76
2021/03/09 01:25:42;;;;;;;8.75;3.28;;;-1.90;99.90;;;;;;5055242;28;20051;-76
2021/03/09 01:28:08;;;;;;;10.55;3.53;;;-1.90;99.90;;;;;;5058440;28;20028;-76
2021/03/09 01:30:34;;;;;;;8.90;3.03;;;-2.00;99.90;;;;;;5057910;28;20074;-76
2021/03/09 01:33:00;;;;;;;7.13;3.30;;;-2.00;99.90;;;;;;5040685;28;20331;-76
2021/03/09 01:35:29;;;;;;;7.63;3.53;;;-2.00;99.90;;;;;;5039501;28;20407;-76
2021/03/09 01:37:55;;;;;;;8.63;3.13;;;-2.00;99.90;;;;;;5058389;28;20057;-76
2021/03/09 01:40:21;;;;;;;10.07;3.83;;;-2.00;99.90;;;;;;5056506;28;20523;-76
2021/03/09 01:42:47;;;;;;;13.00;3.47;;;-2.00;99.90;;;;;;5054010;28;20048;-77
2021/03/09 01:45:13;;;;;;;7.78;3.22;;;-1.90;99.90;;;;;;5055602;28;20033;-77
2021/03/09 01:47:44;;;;;;;9.23;3.20;;;-2.00;99.90;;;;;;5056767;28;20741;-76
2021/03/09 01:50:12;;;;;;;6.78;3.13;;;-1.90;99.90;;;;;;5039661;28;20787;-77
2021/03/09 01:52:39;;;;;;;10.80;3.65;;;-2.00;99.90;;;;;;5051994;28;20564;-77
2021/03/09 01:55:09;;;;;;;12.27;3.50;;;-2.00;99.90;;;;;;5052124;28;20537;-77
2021/03/09 01:57:35;;;;;;;11.05;3.63;;;-2.00;99.90;;;;;;5051383;28;20076;-76
2021/03/09 02:00:04;;;;;;;9.38;3.22;;;-1.90;99.90;;;;;;5033963;28;20044;-76
2021/03/09 02:02:39;;;;;;;7.82;3.53;;;-1.90;99.90;;;;;;5052069;28;20036;-76
2021/03/09 02:05:07;;;;;;;9.27;3.70;;;-1.90;99.90;;;;;;5039058;28;20075;-76
2021/03/09 02:07:33;;;;;;;7.95;3.20;;;-1.90;99.90;;;;;;5038946;28;20433;-76
2021/03/09 02:09:59;;;;;;;9.02;3.10;;;-1.90;99.90;;;;;;5056767;28;20048;-76
2021/03/09 02:12:36;;;;;;;5.82;3.05;;;-1.90;99.90;;;;;;5055272;28;20132;-76
2021/03/09 02:15:13;;;;;;;9.20;3.63;;;-1.90;99.90;;;;;;5057893;28;20044;-76
2021/03/09 02:18:12;;;;;;;12.13;3.63;;;-1.80;99.90;;;;;;5036003;28;20197;-76
2021/03/09 02:21:10;;;;;;;9.43;3.40;;;-1.80;99.90;;;;;;5039294;28;20113;-76
2021/03/09 02:24:30;;;;;;;10.18;3.78;;;-1.80;99.90;;;;;;5056809;28;20029;-76
2021/03/09 02:27:27;;;;;;;6.72;2.85;;;-1.80;99.90;;;;;;4976393;28;20073;-75
2021/03/09 02:30:03;;;;;;;7.25;3.47;;;-1.80;99.90;;;;;;5055628;28;20074;-76
2021/03/09 02:32:34;;;;;;;8.18;3.58;;;-1.80;99.90;;;;;;5057992;28;20162;-76
2021/03/09 02:35:02;;;;;;;8.70;3.33;;;-1.80;99.90;;;;;;5049276;28;20029;-76
2021/03/09 02:37:34;;;;;;;7.25;3.15;;;-1.80;99.90;;;;;;5056374;28;20032;-76
2021/03/09 02:40:04;;;;;;;8.70;3.30;;;-1.80;99.90;;;;;;5056741;28;20044;-77
2021/03/09 02:42:31;;;;;;;11.82;3.38;;;-1.80;99.90;;;;;;5054799;28;20035;-76
2021/03/09 02:45:00;;;;;;;9.75;3.58;;;-1.90;99.90;;;;;;5056174;28;20164;-77
2021/03/09 02:47:27;;;;;;;9.55;3.58;;;-1.90;99.90;;;;;;5056406;28;20033;-77
2021/03/09 02:49:55;;;;;;;7.10;3.53;;;-1.90;99.90;;;;;;5055186;28;20036;-76
2021/03/09 02:52:24;;;;;;;7.82;3.22;;;-1.90;99.90;;;;;;5054768;28;20036;-77
2021/03/09 02:54:51;;;;;;;9.90;3.22;;;-1.90;99.90;;;;;;5055459;28;20080;-76
2021/03/09 02:57:18;;;;;;;10.57;3.85;;;-1.90;99.90;;;;;;5048271;28;20544;-76
2021/03/09 02:59:45;;;;;;;8.55;3.50;;;-1.90;99.90;;;;;;5019576;28;20111;-77
2021/03/09 03:02:16;;;;;;;11.45;3.60;;;-1.90;99.90;;;;;;5037912;28;20540;-77
2021/03/09 03:04:44;;;;;;;9.20;2.97;;;-1.90;99.90;;;;;;5035931;28;20793;-77
2021/03/09 03:07:11;;;;;;;9.60;3.70;;;-1.90;99.90;;;;;;5036173;28;20033;-77
2021/03/09 03:09:38;;;;;;;7.93;3.83;;;-1.90;99.90;;;;;;5033309;28;20025;-77
2021/03/09 03:12:05;;;;;;;9.65;3.63;;;-2.00;99.90;;;;;;5057233;28;20037;-76
2021/03/09 03:14:32;;;;;;;9.73;3.60;;;-1.90;99.90;;;;;;5056834;28;20101;-77
2021/03/09 03:17:01;;;;;;;11.23;3.70;;;-1.90;99.90;;;;;;5056585;28;20036;-76
2021/03/09 03:19:28;;;;;;;11.23;4.72;;;-2.00;99.90;;;;;;5056548;28;20034;-77
2021/03/09 03:21:54;;;;;;;13.13;3.53;;;-2.00;99.90;;;;;;5055788;28;20032;-76
2021/03/09 03:24:20;;;;;;;12.45;4.38;;;-1.90;99.90;;;;;;5057160;28;20056;-76
2021/03/09 03:26:47;;;;;;;10.18;3.75;;;-1.90;99.90;;;;;;5052412;28;20029;-76
2021/03/09 03:29:14;;;;;;;11.55;4.32;;;-2.00;99.90;;;;;;5052930;28;20052;-76
2021/03/09 03:31:40;;;;;;;8.13;4.07;;;-2.00;99.90;;;;;;5050976;28;20044;-76
2021/03/09 03:34:07;;;;;;;12.75;4.45;;;-2.00;99.90;;;;;;5046189;28;20024;-77
2021/03/09 03:36:35;;;;;;;9.63;3.90;;;-2.00;99.90;;;;;;5054454;28;20081;-77
2021/03/09 03:39:01;;;;;;;8.02;3.55;;;-1.90;99.90;;;;;;5038571;28;20416;-76
2021/03/09 03:41:27;;;;;;;9.48;3.92;;;-1.90;99.90;;;;;;5055280;28;20025;-76
2021/03/09 03:43:52;;;;;;;8.10;3.53;;;-2.00;99.90;;;;;;5047754;28;20079;-77
2021/03/09 03:46:18;;;;;;;10.13;3.63;;;-1.90;99.90;;;;;;5034844;28;20658;-76
2021/03/09 03:48:46;;;;;;;8.35;3.78;;;-1.90;99.90;;;;;;5055484;28;20766;-77
2021/03/09 03:51:15;;;;;;;10.55;3.88;;;-1.90;99.90;;;;;;5057173;28;20751;-77
2021/03/09 03:54:10;;;;;;;8.73;3.60;;;-1.90;99.90;;;;;;5056783;28;20037;-77
2021/03/09 03:57:01;;;;;;;16.17;4.35;;;-1.90;99.90;;;;;;5037978;28;20054;-77
2021/03/09 03:59:40;;;;;;;10.77;4.82;;;-1.90;99.90;;;;;;5056268;28;20040;-77
2021/03/09 04:02:11;;;;;;;9.07;3.72;;;-1.90;99.90;;;;;;5053137;28;20029;-77
2021/03/09 04:04:38;;;;;;;9.50;3.75;;;-1.90;99.90;;;;;;5050455;28;20071;-77
2021/03/09 04:07:06;;;;;;;9.23;3.95;;;-1.90;99.90;;;;;;5056121;28;20078;-77
2021/03/09 04:09:32;;;;;;;9.15;3.67;;;-1.90;99.90;;;;;;5037597;28;20043;-77
2021/03/09 04:12:00;;;;;;;10.90;3.63;;;-1.90;99.90;;;;;;5054990;28;20036;-77
2021/03/09 04:14:29;;;;;;;8.02;3.70;;;-1.90;99.90;;;;;;5056449;28;20063;-77
2021/03/09 04:16:56;;;;;;;9.95;3.58;;;-1.90;99.90;;;;;;5034520;28;20029;-77
2021/03/09 04:19:23;;;;;;;12.98;4.00;;;-1.90;99.90;;;;;;5052977;28;20123;-77
2021/03/09 04:21:52;;;;;;;9.18;3.58;;;-1.90;99.90;;;;;;5047639;28;20043;-77
2021/03/09 04:24:19;;;;;;;9.02;4.25;;;-1.90;99.90;;;;;;5037925;28;20036;-77
2021/03/09 04:26:46;;;;;;;9.82;3.65;;;-1.90;99.90;;;;;;5044638;28;20067;-77
2021/03/09 04:29:13;;;;;;;10.85;3.63;;;-1.90;99.90;;;;;;5053804;28;20040;-77
2021/03/09 04:31:41;;;;;;;8.45;3.90;;;-1.90;99.90;;;;;;5055719;28;20690;-77
2021/03/09 04:34:08;;;;;;;8.77;3.90;;;-1.90;99.90;;;;;;5037937;28;20495;-77
2021/03/09 04:36:34;;;;;;;11.95;4.82;;;-1.90;99.90;;;;;;5058016;28;20488;-77
2021/03/09 04:39:04;;;;;;;14.70;4.15;;;-1.90;99.90;;;;;;5058202;28;20036;-77
2021/03/09 04:41:31;;;;;;;14.05;3.92;;;-1.80;99.90;;;;;;5055577;28;20575;-77
2021/03/09 04:43:58;;;;;;;7.82;3.80;;;-1.90;99.90;;;;;;5032121;28;20021;-77
2021/03/09 04:46:24;;;;;;;10.82;4.45;;;-1.90;99.90;;;;;;5031199;28;20048;-77
2021/03/09 04:48:50;;;;;;;9.63;4.13;;;-2.00;99.90;;;;;;5055599;28;20025;-77
2021/03/09 04:51:18;;;;;;;12.00;3.55;;;-2.00;99.90;;;;;;5052561;28;20024;-77
2021/03/09 04:53:45;;;;;;;11.23;3.92;;;-2.10;99.90;;;;;;5055351;28;20365;-77
2021/03/09 04:56:11;;;;;;;12.80;4.05;;;-2.10;99.90;;;;;;5052859;28;20044;-77
2021/03/09 04:58:37;;;;;;;8.25;3.55;;;-2.10;99.90;;;;;;5049576;28;20036;-75
2021/03/09 05:01:03;;;;;;;13.02;4.15;;;-2.10;99.90;;;;;;5041080;28;20032;-74
2021/03/09 05:03:31;;;;;;;12.70;4.38;;;-2.10;99.90;;;;;;5059391;28;20090;-74
2021/03/09 05:05:57;;;;;;;43.45;20.60;;;-2.10;99.90;;;;;;5055879;28;20052;-75
2021/03/09 05:08:22;;;;;;;14.38;6.50;;;-2.10;99.90;;;;;;5037826;28;20100;-80
2021/03/09 05:10:48;;;;;;;11.93;4.25;;;-2.10;99.90;;;;;;5051328;28;20043;-74
2021/03/09 05:13:15;;;;;;;10.45;4.40;;;-2.10;99.90;;;;;;5049405;28;20025;-76
2021/03/09 05:15:41;;;;;;;11.60;4.13;;;-2.00;99.90;;;;;;5023704;28;20147;-76
2021/03/09 05:18:07;;;;;;;9.48;3.85;;;-2.00;99.90;;;;;;5040779;28;20033;-76
2021/03/09 05:20:33;;;;;;;11.95;4.40;;;-2.00;99.90;;;;;;5059714;28;20131;-76
2021/03/09 05:22:59;;;;;;;11.13;3.90;;;-2.00;99.90;;;;;;5058879;28;20038;-78
2021/03/09 05:25:25;;;;;;;14.73;3.80;;;-1.90;99.90;;;;;;5031790;28;20458;-78
2021/03/09 05:27:51;;;;;;;10.23;4.10;;;-2.00;99.90;;;;;;5059005;28;20062;-78
2021/03/09 05:30:19;;;;;;;13.40;4.68;;;-2.00;99.90;;;;;;5056832;28;20977;-77
2021/03/09 05:32:45;;;;;;;11.30;3.90;;;-2.00;99.90;;;;;;5053772;28;20075;-76
2021/03/09 05:35:12;;;;;;;15.48;3.90;;;-2.00;99.90;;;;;;5048750;28;20774;-76
2021/03/09 05:37:39;;;;;;;9.52;4.10;;;-2.00;99.90;;;;;;5054563;28;20069;-76
2021/03/09 05:40:06;;;;;;;13.57;4.32;;;-2.00;99.90;;;;;;5037091;28;20032;-76
2021/03/09 05:42:32;;;;;;;13.98;4.88;;;-2.00;99.90;;;;;;5040431;28;20079;-76
2021/03/09 05:44:58;;;;;;;10.50;3.95;;;-2.00;99.90;;;;;;5054321;28;20128;-76
2021/03/09 05:47:24;;;;;;;13.65;4.68;;;-2.00;99.90;;;;;;5023253;28;20500;-76
2021/03/09 05:49:50;;;;;;;8.68;4.45;;;-2.00;99.90;;;;;;5049727;28;20658;-77
2021/03/09 05:52:17;;;;;;;12.45;4.70;;;-1.90;99.90;;;;;;5055455;28;20028;-76
2021/03/09 05:54:43;;;;;;;11.20;4.65;;;-1.90;99.90;;;;;;5058360;28;20079;-76
2021/03/09 05:57:08;;;;;;;11.38;4.22;;;-1.90;99.90;;;;;;5035691;28;20119;-75
2021/03/09 05:59:34;;;;;;;12.57;4.78;;;-2.00;99.90;;;;;;5034086;28;20041;-76
2021/03/09 06:02:00;;;;;;;12.35;4.53;;;-2.00;99.90;;;;;;5057870;28;20588;-76
2021/03/09 06:04:26;;;;;;;12.48;4.53;;;-1.80;99.90;;;;;;5051660;28;20028;-76
2021/03/09 06:06:52;;;;;;;11.20;4.78;;;-1.80;99.90;;;;;;5056257;28;20039;-76
2021/03/09 06:09:33;;;;;;;11.35;4.85;;;-1.80;99.90;;;;;;5046762;28;20036;-77
2021/03/09 06:12:14;;;;;;;10.93;4.40;;;-1.80;99.90;;;;;;5035904;28;20029;-76
2021/03/09 06:14:59;;;;;;;12.32;5.15;;;-1.70;99.90;;;;;;5023543;28;20145;-76
2021/03/09 06:17:24;;;;;;;20.95;3.88;;;-1.70;99.90;;;;;;5050294;28;20035;-76
2021/03/09 06:19:50;;;;;;;14.32;4.88;;;-1.70;99.90;;;;;;5039851;28;20524;-83
2021/03/09 06:22:17;;;;;;;9.57;4.65;;;-1.70;99.90;;;;;;5050594;28;20048;-77
2021/03/09 06:24:45;;;;;;;11.02;4.57;;;-1.70;99.90;;;;;;5051252;28;20033;-76
2021/03/09 06:27:30;;;;;;;12.43;4.70;;;-1.70;99.90;;;;;;5047979;28;20413;-76
2021/03/09 06:29:57;;;;;;;10.50;4.93;;;-1.60;99.90;;;;;;5055114;28;20056;-74
2021/03/09 06:32:24;;;;;;;12.52;5.20;;;-1.60;99.90;;;;;;5048779;28;20029;-76
2021/03/09 06:34:52;;;;;;;11.80;5.18;;;-1.60;99.90;;;;;;5050342;28;20114;-77
2021/03/09 06:37:23;;;;;;;12.18;5.07;;;-1.60;99.90;;;;;;5036024;28;20040;-77
2021/03/09 06:39:56;;;;;;;13.75;5.13;;;-1.60;99.90;;;;;;5031228;28;20045;-77
2021/03/09 06:42:35;;;;;;;12.43;5.03;;;-1.60;99.90;;;;;;5057329;28;20119;-77
2021/03/09 06:45:04;;;;;;;14.05;5.22;;;-1.60;99.90;;;;;;5053876;28;20119;-76
2021/03/09 06:47:44;;;;;;;14.23;5.88;;;-1.60;99.90;;;;;;5058171;28;20024;-77
2021/03/09 06:50:17;;;;;;;11.05;4.30;;;-1.50;99.90;;;;;;5050612;28;20032;-77
2021/03/09 06:52:56;;;;;;;20.15;5.22;;;-1.40;99.90;;;;;;5053406;28;20024;-77
2021/03/09 06:55:28;;;;;;;15.93;5.47;;;-1.30;99.90;;;;;;5055541;28;20040;-77
2021/03/09 06:58:12;;;;;;;13.82;5.57;;;-1.10;99.90;;;;;;5057125;28;20586;-77
2021/03/09 07:00:39;;;;;;;12.75;4.97;;;-1.10;99.90;;;;;;5054710;28;20067;-78
2021/03/09 07:03:05;;;;;;;14.20;5.55;;;-0.90;99.90;;;;;;5032255;28;20032;-77
2021/03/09 07:05:30;;;;;;;13.48;4.85;;;-0.70;99.90;;;;;;5045106;28;20764;-77
2021/03/09 07:07:56;;;;;;;13.00;5.22;;;-0.70;99.90;;;;;;5034153;28;20082;-78
2021/03/09 07:10:28;;;;;;;12.25;5.15;;;-0.60;99.90;;;;;;5051751;28;20526;-73
2021/03/09 07:12:54;;;;;;;12.73;4.78;;;-0.60;99.90;;;;;;5055451;28;20485;-77
2021/03/09 07:15:21;;;;;;;17.10;5.47;;;-0.60;99.90;;;;;;5054887;28;20036;-77
2021/03/09 07:17:51;;;;;;;12.13;5.20;;;-0.50;99.90;;;;;;5038372;28;20079;-77
2021/03/09 07:20:40;;;;;;;13.07;5.28;;;-0.40;99.90;;;;;;5056694;28;20036;-76
2021/03/09 07:23:12;;;;;;;12.65;4.97;;;-0.20;99.90;;;;;;5053045;28;20036;-76
2021/03/09 07:25:39;;;;;;;13.95;5.55;;;-0.20;99.90;;;;;;5029653;28;20032;-72
2021/03/09 07:28:10;;;;;;;13.82;5.10;;;-0.20;99.90;;;;;;5054067;28;20759;-72
2021/03/09 07:30:40;;;;;;;14.93;5.10;;;-0.10;99.90;;;;;;5037730;28;20051;-72
2021/03/09 07:33:06;;;;;;;13.30;5.18;;;0.10;99.90;;;;;;5039314;28;20523;-72
2021/03/09 07:35:33;;;;;;;14.52;5.60;;;0.20;99.90;;;;;;5056767;28;20071;-72
2021/03/09 07:37:59;;;;;;;10.73;5.32;;;0.20;99.90;;;;;;5056980;28;20795;-72
2021/03/09 07:40:30;;;;;;;12.02;5.03;;;0.20;99.90;;;;;;5056009;28;20446;-72
2021/03/09 07:42:57;;;;;;;17.92;5.63;;;0.30;99.90;;;;;;5056796;28;20040;-72
2021/03/09 07:45:25;;;;;;;12.20;5.28;;;0.50;99.90;;;;;;5052255;28;20139;-73
2021/03/09 07:47:59;;;;;;;15.23;5.25;;;0.60;99.90;;;;;;5016574;28;20810;-72
2021/03/09 07:50:31;;;;;;;12.77;5.03;;;0.80;99.90;;;;;;5052337;28;20039;-73
2021/03/09 07:53:03;;;;;;;13.93;5.22;;;1.10;99.40;;;;;;5054861;28;20038;-72
2021/03/09 07:55:30;;;;;;;15.30;5.25;;;1.20;99.00;;;;;;5054324;28;20029;-73
2021/03/09 07:58:23;;;;;;;11.85;4.65;;;1.40;98.70;;;;;;5038567;28;20041;-72
2021/03/09 08:01:09;;;;;;;12.32;4.68;;;1.70;97.50;;;;;;5044448;28;20083;-72
2021/03/09 08:03:43;;;;;;;21.17;5.60;;;1.70;97.30;;;;;;5054714;28;20702;-72
2021/03/09 08:06:17;;;;;;;14.43;5.17;;;1.80;97.10;;;;;;5054697;28;20029;-73
2021/03/09 08:08:54;;;;;;;14.10;5.00;;;1.90;96.70;;;;;;5050665;28;20311;-73
2021/03/09 08:11:20;;;;;;;10.68;5.18;;;2.00;95.20;;;;;;5055252;28;20443;-73
2021/03/09 08:14:08;;;;;;;19.90;5.40;;;2.20;94.60;;;;;;5056204;28;20029;-73
2021/03/09 08:16:43;;;;;;;14.40;5.38;;;2.30;94.60;;;;;;5030060;28;20469;-72
2021/03/09 08:19:35;;;;;;;16.05;4.72;;;2.30;94.80;;;;;;5056227;28;20086;-72
2021/03/09 08:22:02;;;;;;;12.70;5.40;;;2.40;95.20;;;;;;5055922;28;20794;-72
2021/03/09 08:24:40;;;;;;;12.70;5.65;;;2.70;94.20;;;;;;5020925;28;20064;-72
2021/03/09 08:27:28;;;;;;;14.73;5.35;;;2.80;91.80;;;;;;5056088;28;20059;-72
2021/03/09 08:30:27;;;;;;;17.83;5.88;;;2.70;92.90;;;;;;5050116;28;20033;-72
2021/03/09 08:32:53;;;;;;;13.57;5.57;;;3.00;93.20;;;;;;5052018;28;20036;-72
2021/03/09 08:35:19;;;;;;;19.63;5.85;;;3.30;92.40;;;;;;5055154;28;20032;-71
2021/03/09 08:37:49;;;;;;;16.20;5.78;;;3.50;90.00;;;;;;5052332;28;20690;-71
2021/03/09 08:40:19;;;;;;;16.05;5.10;;;3.60;89.10;;;;;;5051809;28;20032;-72
2021/03/09 08:43:11;;;;;;;16.42;5.50;;;3.60;88.90;;;;;;5057239;28;20104;-71
2021/03/09 08:45:42;;;;;;;12.38;5.32;;;3.80;86.80;;;;;;5057366;28;20116;-71
2021/03/09 08:48:12;;;;;;;9.80;5.13;;;4.00;85.10;;;;;;5060047;28;20028;-70
2021/03/09 08:50:45;;;;;;;15.63;4.93;;;4.00;82.60;;;;;;5059156;28;20039;-70
2021/03/09 08:53:31;;;;;;;10.30;4.70;;;4.00;81.10;;;;;;5059232;28;20032;-70
2021/03/09 08:56:02;;;;;;;12.60;4.93;;;3.80;78.70;;;;;;5055707;28;20930;-70
2021/03/09 08:58:28;;;;;;;15.15;5.47;;;3.60;82.90;;;;;;5051330;28;20756;-69
2021/03/09 09:00:54;;;;;;;11.18;4.95;;;3.70;85.00;;;;;;5024525;28;20654;-70
2021/03/09 09:03:30;;;;;;;8.73;4.30;;;3.90;83.20;;;;;;5057507;28;20033;-67
2021/03/09 09:05:56;;;;;;;12.02;4.93;;;4.30;82.70;;;;;;5036029;28;20040;-68
2021/03/09 09:08:22;;;;;;;8.35;4.15;;;4.70;77.00;;;;;;5059157;28;20040;-74
2021/03/09 09:10:48;;;;;;;11.63;4.38;;;4.70;74.00;;;;;;5057119;28;20021;-69
2021/03/09 09:13:13;;;;;;;9.40;4.72;;;5.20;72.40;;;;;;5040588;28;20063;-69
2021/03/09 09:15:39;;;;;;;7.82;4.18;;;5.30;72.70;;;;;;5058333;28;20935;-70
2021/03/09 09:18:07;;;;;;;17.05;4.30;;;5.40;72.70;;;;;;5058616;28;20025;-69
2021/03/09 09:20:35;;;;;;;10.48;4.22;;;5.20;69.70;;;;;;5035190;28;20033;-71
2021/03/09 09:23:22;;;;;;;14.05;4.45;;;5.40;67.40;;;;;;5058310;28;20083;-71
2021/03/09 09:25:50;;;;;;;13.25;4.45;;;5.30;68.30;;;;;;5058370;28;20071;-71
2021/03/09 09:28:26;;;;;;;9.13;4.15;;;5.50;69.20;;;;;;5040231;28;20543;-70
2021/03/09 09:30:53;;;;;;;12.32;4.40;;;5.60;67.70;;;;;;5053567;28;20028;-70
2021/03/09 09:33:20;;;;;;;11.23;4.18;;;5.70;68.40;;;;;;5058276;28;20036;-71
2021/03/09 09:35:48;;;;;;;11.88;4.38;;;6.00;66.90;;;;;;5033869;28;20102;-71
2021/03/09 09:38:16;;;;;;;12.43;4.28;;;6.20;66.90;;;;;;5049351;28;20032;-71
2021/03/09 09:40:50;;;;;;;12.25;5.60;;;6.30;65.90;;;;;;5058383;28;20064;-71
2021/03/09 09:43:18;;;;;;;12.43;5.03;;;5.80;64.50;;;;;;5058637;28;20044;-76
2021/03/09 09:46:04;;;;;;;14.20;4.40;;;5.90;66.30;;;;;;5054892;28;20045;-74
2021/03/09 09:48:31;;;;;;;;;;;6.10;65.90;;;;;;5050199;28;20121;-71
2021/03/09 09:51:00;;;;;;;10.02;4.45;;;6.20;66.80;;;;;;5052911;28;19942;-71
2021/03/09 09:53:34;;;;;;;12.13;3.95;;;6.30;64.30;;;;;;5053568;28;20024;-71
2021/03/09 09:56:01;;;;;;;12.60;4.43;;;6.20;63.20;;;;;;5039972;28;20476;-71
2021/03/09 09:58:56;;;;;;;11.48;4.20;;;6.20;65.50;;;;;;5057220;28;20147;-71
2021/03/09 10:01:45;;;;;;;8.48;3.97;;;5.80;63.40;;;;;;5051835;28;20052;-73
2021/03/09 10:04:14;;;;;;;11.45;4.40;;;5.90;64.70;;;;;;5048580;28;20449;-71
2021/03/09 10:06:44;;;;;;;12.00;4.95;;;6.20;66.60;;;;;;5038485;28;20172;-71
2021/03/09 10:09:13;;;;;;;12.13;4.40;;;6.10;64.20;;;;;;5039015;28;20036;-71
2021/03/09 10:11:54;;;;;;;9.70;4.43;;;6.00;66.40;;;;;;5039231;28;20028;-71
2021/03/09 10:14:23;;;;;;;8.73;4.15;;;6.00;63.80;;;;;;5051600;28;20032;-71
2021/03/09 10:16:49;;;;;;;13.27;4.70;;;6.00;65.30;;;;;;5057225;28;20024;-73
2021/03/09 10:19:18;;;;;;;12.77;4.85;;;6.20;63.60;;;;;;5054949;28;20029;-71
2021/03/09 10:21:55;;;;;;;7.65;3.90;;;6.30;63.60;;;;;;5038665;28;20048;-71
2021/03/09 10:24:32;;;;;;;10.30;4.22;;;6.80;63.60;;;;;;5056248;28;20028;-71
2021/03/09 10:26:59;;;;;;;6.50;3.70;;;6.90;62.10;;;;;;5057006;28;20040;-72
2021/03/09 10:29:27;;;;;;;12.35;3.70;;;7.00;59.60;;;;;;5057153;28;20028;-72
2021/03/09 10:32:02;;;;;;;15.40;4.20;;;7.20;58.20;;;;;;5057305;28;20039;-72
2021/03/09 10:34:49;;;;;;;9.57;3.50;;;7.30;59.20;;;;;;5029575;28;20036;-74
2021/03/09 10:37:36;;;;;;;6.85;3.45;;;7.70;57.90;;;;;;5039359;28;20126;-74
2021/03/09 10:40:14;;;;;;;12.60;3.80;;;8.10;55.80;;;;;;5039620;28;20756;-75
2021/03/09 10:42:50;;;;;;;8.98;3.72;;;8.40;53.80;;;;;;5052996;28;20137;-74
2021/03/09 10:45:16;;;;;;;9.18;4.35;;;8.30;52.70;;;;;;5055690;28;20563;-76
2021/03/09 10:47:52;;;;;;;9.80;3.90;;;7.90;53.60;;;;;;5031014;28;20047;-76
2021/03/09 10:50:20;;;;;;;6.90;3.63;;;8.00;55.90;;;;;;5054579;28;20028;-75
2021/03/09 10:52:46;;;;;;;10.52;3.45;;;8.20;53.90;;;;;;5046796;28;20067;-76
2021/03/09 10:55:13;;;;;;;9.35;3.67;;;8.30;51.90;;;;;;5053177;28;20123;-75
2021/03/09 10:57:39;;;;;;;5.88;3.50;;;8.20;52.70;;;;;;5048573;28;20043;-73
2021/03/09 11:00:09;;;;;;;9.45;3.60;;;7.80;53.60;;;;;;5050068;28;20396;-74
2021/03/09 11:02:34;;;;;;;6.47;3.47;;;7.80;51.40;;;;;;5054565;28;20498;-75
2021/03/09 11:05:00;;;;;;;11.68;4.00;;;8.30;52.40;;;;;;5020147;28;20044;-75
2021/03/09 11:07:26;;;;;;;6.65;3.15;;;8.70;50.90;;;;;;5057289;28;20032;-75
2021/03/09 11:09:52;;;;;;;9.15;3.22;;;9.10;50.40;;;;;;5033697;28;20074;-74
2021/03/09 11:12:17;;;;;;;5.18;3.38;;;9.20;49.10;;;;;;5047146;28;20028;-75
2021/03/09 11:14:43;;;;;;;8.90;3.35;;;9.30;49.10;;;;;;5045382;28;20035;-74
2021/03/09 11:17:09;;;;;;;4.55;2.65;;;9.30;49.60;;;;;;5048672;28;20040;-75
2021/03/09 11:19:35;;;;;;;6.38;2.90;;;9.60;47.50;;;;;;5051634;28;20032;-75
2021/03/09 11:22:01;;;;;;;11.32;3.90;;;9.50;46.80;;;;;;5034152;28;20032;-75
2021/03/09 11:24:27;;;;;;;8.95;3.20;;;9.10;46.60;;;;;;5047422;28;20131;-75
2021/03/09 11:26:58;;;;;;;5.68;2.80;;;9.10;47.40;;;;;;5051028;28;20040;-75
2021/03/09 11:29:25;;;;;;;6.10;3.08;;;9.10;47.20;;;;;;5034557;28;20060;-74
2021/03/09 11:31:50;;;;;;;5.15;2.50;;;9.10;47.70;;;;;;5034828;28;20033;-76
2021/03/09 11:34:16;;;;;;;6.10;2.60;;;9.00;46.80;;;;;;5045050;28;20070;-75
2021/03/09 11:36:42;;;;;;;4.50;2.15;;;8.50;47.40;;;;;;5038411;28;20044;-76
2021/03/09 11:39:07;;;;;;;3.67;2.40;;;8.20;48.00;;;;;;5034718;28;20067;-76
2021/03/09 11:41:33;;;;;;;5.32;3.20;;;8.10;48.00;;;;;;5053946;28;20071;-75
2021/03/09 11:43:59;;;;;;;8.40;2.97;;;8.10;48.40;;;;;;5053258;28;20055;-75
2021/03/09 11:46:24;;;;;;;4.53;2.50;;;8.40;49.30;;;;;;5052059;28;20601;-75
2021/03/09 11:48:50;;;;;;;5.60;2.50;;;8.50;47.90;;;;;;5054706;28;20029;-77
2021/03/09 11:51:16;;;;;;;5.65;2.35;;;8.10;48.60;;;;;;5020281;28;20081;-73
2021/03/09 11:53:42;;;;;;;6.38;2.47;;;8.40;49.10;;;;;;5054902;28;20025;-73
2021/03/09 11:56:07;;;;;;;6.22;2.40;;;8.00;48.20;;;;;;5027181;28;20565;-75
2021/03/09 11:58:33;;;;;;;3.97;2.50;;;8.10;48.60;;;;;;5037441;28;20033;-75
2021/03/09 12:00:59;;;;;;;3.67;2.10;;;8.00;49.00;;;;;;5049473;28;20114;-75
2021/03/09 12:03:25;;;;;;;5.07;2.00;;;8.40;47.30;;;;;;5046794;28;20161;-75
2021/03/09 12:05:51;;;;;;;3.13;2.08;;;8.50;44.70;;;;;;5043441;28;20052;-75
2021/03/09 12:08:16;;;;;;;5.80;3.08;;;8.80;46.90;;;;;;5033063;28;20029;-75
2021/03/09 12:10:42;;;;;;;7.45;2.90;;;9.60;46.50;;;;;;5053078;28;20068;-75
2021/03/09 12:13:08;;;;;;;6.15;2.95;;;10.10;45.20;;;;;;5050044;28;20025;-76
2021/03/09 12:15:34;;;;;;;4.88;2.88;;;10.30;45.30;;;;;;5013782;28;20503;-75
2021/03/09 12:18:00;;;;;;;6.78;2.97;;;10.00;45.50;;;;;;5049981;28;20028;-75
2021/03/09 12:20:26;;;;;;;6.78;2.88;;;10.60;44.00;;;;;;5032861;28;20040;-75
2021/03/09 12:22:52;;;;;;;8.70;3.80;;;10.80;44.60;;;;;;5048075;28;20056;-75
2021/03/09 12:25:17;;;;;;;3.92;2.42;;;11.50;44.60;;;;;;5028118;28;20155;-75
2021/03/09 12:27:43;;;;;;;7.20;3.10;;;11.70;41.90;;;;;;5052673;28;20100;-75
2021/03/09 12:30:10;;;;;;;5.18;2.67;;;11.90;42.20;;;;;;5044446;28;20657;-73
2021/03/09 12:32:36;;;;;;;3.92;2.35;;;12.20;40.50;;;;;;5051780;28;20530;-74
2021/03/09 12:35:07;;;;;;;4.60;2.53;;;11.60;40.20;;;;;;5053010;28;20036;-74
2021/03/09 12:37:33;;;;;;;7.85;2.72;;;12.00;39.50;;;;;;5053216;28;20040;-73
2021/03/09 12:39:59;;;;;;;6.93;2.63;;;11.50;40.90;;;;;;5034903;28;20040;-74
2021/03/09 12:42:25;;;;;;;5.90;3.08;;;11.90;41.80;;;;;;5052202;28;20803;-73
2021/03/09 12:44:51;;;;;;;4.90;2.50;;;12.10;41.80;;;;;;5043217;28;20025;-71
2021/03/09 12:47:17;;;;;;;5.30;2.28;;;11.50;40.90;;;;;;5050313;28;20663;-72
2021/03/09 12:49:46;;;;;;;3.15;2.17;;;11.20;39.80;;;;;;5053589;28;20663;-72
2021/03/09 12:52:11;;;;;;;3.45;2.05;;;10.50;41.40;;;;;;5035690;28;20114;-75
2021/03/09 12:54:37;;;;;;;2.80;1.80;;;11.00;41.70;;;;;;5031209;28;20041;-73
2021/03/09 12:57:03;;;;;;;6.65;2.00;;;11.40;40.60;;;;;;5034507;28;20041;-73